Ferndale, California
Current Conditions -  °F | °C
As of 1:30 AM on Thursday 23 Oct 2014 (Local Time) from KFOT Reporting Station
Overcast Overcast  
Wind Chill: 59°   Ceiling: 2600
Heat Index: 59°   Visibility: 5mi
Dew Point: 57°   Wind: 8mph
Humidity: 94%   Direction: 110°ESE
Pressure: 29.98"   Gusts: NA
Location:  40.58°N, 124.26°W
Report Text: KFOT 230830Z AUTO 11007KT 5SM BKN026 OVC035 15/14 A2998 RMK AO1 P0009
Loading
Personal Weather Stations






























Interactive Weather Map
Tropical Storm Tracking
New forecast layout! Learn more

10-Day Weather Forecast

Advertisements
Track Severe Weather on mobile